createdAt,value
2018-08-20T02:29:09.692Z,0.00
2018-08-20T02:30:09.260Z,0.00
2018-08-20T02:31:09.370Z,0.00
2018-08-20T03:38:30.656Z,0.00
2018-08-20T04:00:27.826Z,0.00
2018-08-20T04:01:27.754Z,0.00
2018-08-20T04:02:27.751Z,0.00
2018-08-20T04:03:27.746Z,0.00
2018-08-20T04:04:27.714Z,0.00
2018-08-20T04:05:27.701Z,0.00
2018-08-20T04:06:27.694Z,0.00
2018-08-20T04:07:27.694Z,0.00
2018-08-20T04:08:27.681Z,0.00
2018-08-20T04:09:27.663Z,5.62
2018-08-20T04:10:27.649Z,5.62
2018-08-20T04:11:27.636Z,5.62
2018-08-20T04:12:27.638Z,5.62
2018-08-20T04:13:27.609Z,5.62
2018-08-20T04:14:27.643Z,5.62
2018-08-20T04:15:27.592Z,5.62
2018-08-20T04:16:27.579Z,5.62
2018-08-20T04:17:27.579Z,5.62
2018-08-20T04:18:27.564Z,5.62
2018-08-20T04:19:27.542Z,11.25
2018-08-20T04:20:27.532Z,11.25
2018-08-20T04:21:27.521Z,11.25
2018-08-20T04:22:27.559Z,11.25
2018-08-20T04:23:27.505Z,11.25
2018-08-20T04:24:27.502Z,11.25
2018-08-20T04:25:27.480Z,11.25
2018-08-20T04:26:27.463Z,11.25
2018-08-20T04:27:27.503Z,16.88
2018-08-20T04:28:27.445Z,16.88
2018-08-20T04:29:27.432Z,16.88
2018-08-20T04:30:27.434Z,16.88
2018-08-20T04:31:27.424Z,16.88
2018-08-20T04:32:27.430Z,22.50
2018-08-20T04:33:27.399Z,22.50
2018-08-20T04:34:27.390Z,22.50
2018-08-20T04:35:27.373Z,22.50
2018-08-20T04:36:27.402Z,22.50
2018-08-20T04:37:27.361Z,22.50
2018-08-20T04:38:27.336Z,22.50
2018-08-20T04:39:27.320Z,28.12
2018-08-20T04:40:27.312Z,28.12
2018-08-20T04:41:27.295Z,28.12
2018-08-20T04:42:27.314Z,28.12
2018-08-20T04:43:27.280Z,28.12
2018-08-20T04:44:27.265Z,28.12
2018-08-20T04:45:27.260Z,33.75
2018-08-20T04:46:27.245Z,33.75
2018-08-20T04:47:27.261Z,33.75
2018-08-20T04:48:27.219Z,33.75
2018-08-20T04:49:27.210Z,33.75
2018-08-20T04:50:27.366Z,39.38
2018-08-20T04:51:27.221Z,39.38
2018-08-20T04:52:27.197Z,39.38
2018-08-20T04:53:27.167Z,39.38
2018-08-20T04:54:27.157Z,39.38
2018-08-20T04:55:27.168Z,45.00
2018-08-20T04:56:27.128Z,45.00
2018-08-20T04:57:27.142Z,45.00
2018-08-20T04:58:27.118Z,45.00
2018-08-20T04:59:27.096Z,45.00
2018-08-20T05:00:27.089Z,50.62
2018-08-20T05:01:27.085Z,50.62
2018-08-20T05:02:27.089Z,50.62
2018-08-20T05:03:27.058Z,50.62
2018-08-20T05:04:27.054Z,56.25
2018-08-20T05:05:27.043Z,56.25
2018-08-20T05:06:27.015Z,56.25
2018-08-20T05:07:27.043Z,56.25
2018-08-20T05:08:26.995Z,61.88
2018-08-20T05:09:26.990Z,61.88
2018-08-20T05:10:26.978Z,61.88
2018-08-20T05:11:26.966Z,61.88
2018-08-20T05:12:26.947Z,67.50
2018-08-20T05:13:26.953Z,67.50
2018-08-20T05:14:26.927Z,67.50
2018-08-20T05:15:26.936Z,73.12
2018-08-20T05:16:26.945Z,73.12
2018-08-20T05:17:26.891Z,73.12
2018-08-20T05:18:26.909Z,73.12
2018-08-20T05:19:26.887Z,73.12
2018-08-20T05:20:26.884Z,78.75
2018-08-20T05:21:26.889Z,78.75
2018-08-20T05:22:26.835Z,78.75
2018-08-20T05:23:26.862Z,78.75
2018-08-20T05:24:26.828Z,78.75
2018-08-20T05:25:26.817Z,78.75
2018-08-20T05:26:26.794Z,78.75
2018-08-20T05:27:26.787Z,78.75
2018-08-20T05:28:26.788Z,78.75
2018-08-20T05:29:26.830Z,84.38
2018-08-20T05:30:26.752Z,84.38
2018-08-20T05:31:26.738Z,84.38
2018-08-20T05:32:26.725Z,84.38
2018-08-20T05:33:26.739Z,84.38
2018-08-20T05:34:26.726Z,90.00
2018-08-20T05:35:26.695Z,90.00
2018-08-20T05:36:26.685Z,90.00
2018-08-20T05:37:26.667Z,90.00
2018-08-20T05:38:26.681Z,95.62
2018-08-20T05:39:26.649Z,95.62
2018-08-20T05:40:26.653Z,95.62
2018-08-20T05:41:26.628Z,101.25
2018-08-20T05:42:26.611Z,101.25
2018-08-20T05:43:26.610Z,101.25
2018-08-20T05:44:26.586Z,106.88
2018-08-20T05:45:26.576Z,106.88
2018-08-20T05:46:26.565Z,106.88
2018-08-20T05:47:26.556Z,112.50
2018-08-20T05:48:26.568Z,112.50
2018-08-20T05:49:26.549Z,112.50
2018-08-20T05:50:26.543Z,112.50
2018-08-20T05:51:26.506Z,118.12
2018-08-20T05:52:26.501Z,118.12
2018-08-20T05:53:26.500Z,118.12
2018-08-20T05:54:26.473Z,118.12
2018-08-20T05:55:26.466Z,123.75
2018-08-20T05:56:26.458Z,123.75
2018-08-20T05:57:26.440Z,123.75
2018-08-20T05:58:26.444Z,123.75
2018-08-20T05:59:26.423Z,129.38
2018-08-20T06:00:26.406Z,129.38
2018-08-20T06:01:26.394Z,129.38
2018-08-20T06:02:26.388Z,129.38
2018-08-20T06:03:26.387Z,135.00
2018-08-20T06:04:26.360Z,135.00
2018-08-20T06:05:26.355Z,135.00
2018-08-20T06:06:26.340Z,135.00
2018-08-20T06:07:26.331Z,140.62
2018-08-20T06:08:26.327Z,140.62
2018-08-20T06:09:26.307Z,140.62
2018-08-20T06:10:26.292Z,146.25
2018-08-20T06:11:26.285Z,146.25
2018-08-20T06:12:26.272Z,146.25
2018-08-20T06:13:26.271Z,151.88
2018-08-20T06:14:26.254Z,151.88
2018-08-20T06:15:26.236Z,151.88
2018-08-20T06:16:26.231Z,157.50
2018-08-20T06:17:26.218Z,157.50
2018-08-20T06:18:26.218Z,157.50
2018-08-20T06:19:26.197Z,163.12
2018-08-20T06:20:26.183Z,163.12
2018-08-20T06:21:26.171Z,163.12
2018-08-20T06:22:26.170Z,168.75
2018-08-20T06:23:26.163Z,191.25
2018-08-20T06:24:26.136Z,230.62
2018-08-20T06:25:26.133Z,270.00
2018-08-20T06:26:26.118Z,292.50
2018-08-20T06:27:26.104Z,298.12
2018-08-20T06:28:26.109Z,298.12
2018-08-20T06:29:26.085Z,303.75
2018-08-20T06:30:26.070Z,303.75
2018-08-20T06:31:26.061Z,309.38
2018-08-20T06:32:26.051Z,309.38
2018-08-20T06:33:26.049Z,315.00
2018-08-20T06:34:26.027Z,315.00
2018-08-20T06:35:26.018Z,315.00
2018-08-20T06:36:26.003Z,315.00
2018-08-20T06:37:25.992Z,315.00
2018-08-20T06:38:25.990Z,320.62
2018-08-20T06:39:25.971Z,326.25
2018-08-20T06:40:25.956Z,326.25
2018-08-20T06:41:25.946Z,337.50
2018-08-20T06:42:25.936Z,337.50
2018-08-20T06:43:25.940Z,348.75
2018-08-20T06:44:25.915Z,354.38
2018-08-20T06:45:25.900Z,360.00
2018-08-20T06:46:25.900Z,365.62
2018-08-20T06:47:25.881Z,365.62
2018-08-20T06:48:25.881Z,376.88
2018-08-20T06:49:25.868Z,376.88
2018-08-20T06:50:25.849Z,376.88
2018-08-20T06:51:25.834Z,382.50
2018-08-20T06:52:25.825Z,388.12
2018-08-20T06:53:25.824Z,388.12
2018-08-20T06:54:25.814Z,393.75
2018-08-20T06:55:25.797Z,393.75
2018-08-20T06:56:25.781Z,399.38
2018-08-20T06:57:25.774Z,399.38
2018-08-20T06:58:25.776Z,405.00
2018-08-20T06:59:25.745Z,405.00
2018-08-20T07:00:25.734Z,410.62
2018-08-20T07:01:25.723Z,416.25
2018-08-20T07:02:25.715Z,416.25
2018-08-20T07:03:25.715Z,421.88
2018-08-20T07:04:25.692Z,427.50
2018-08-20T07:05:25.677Z,433.12
2018-08-20T07:06:25.722Z,438.75
2018-08-20T07:07:25.657Z,438.75
2018-08-20T07:08:25.660Z,444.38
2018-08-20T07:09:25.633Z,444.38
2018-08-20T07:10:25.623Z,450.00
2018-08-20T07:11:25.611Z,450.00
2018-08-20T07:12:25.599Z,455.62
2018-08-20T07:13:25.612Z,461.25
2018-08-20T07:14:25.579Z,461.25
2018-08-20T07:15:25.566Z,472.50
2018-08-20T07:16:25.556Z,472.50
2018-08-20T07:17:25.561Z,483.75
2018-08-20T07:18:25.536Z,483.75
2018-08-20T07:19:25.548Z,489.38
2018-08-20T07:20:25.513Z,495.00
2018-08-20T07:21:25.500Z,495.00
2018-08-20T07:22:25.491Z,500.62
2018-08-20T07:23:25.488Z,506.25
2018-08-20T07:24:25.477Z,511.88
2018-08-20T07:25:25.454Z,511.88
2018-08-20T07:26:25.443Z,517.50
2018-08-20T07:27:25.435Z,528.75
2018-08-20T07:28:25.425Z,523.12
2018-08-20T07:29:25.421Z,528.75
2018-08-20T07:30:25.402Z,528.75
2018-08-20T07:31:25.387Z,528.75
2018-08-20T07:32:25.377Z,534.38
2018-08-20T07:33:25.365Z,540.00
2018-08-20T07:34:25.458Z,545.62
2018-08-20T07:35:25.349Z,551.25
2018-08-20T07:36:25.333Z,551.25
2018-08-20T07:37:25.321Z,556.88
2018-08-20T07:38:25.309Z,556.88
2018-08-20T07:39:25.310Z,562.50
2018-08-20T07:40:25.287Z,568.12
2018-08-20T07:41:25.281Z,568.12
2018-08-20T07:42:25.308Z,568.12
2018-08-20T07:43:25.257Z,573.75
2018-08-20T07:44:25.267Z,579.38
2018-08-20T07:45:25.231Z,579.38
2018-08-20T07:46:25.219Z,585.00
2018-08-20T07:47:25.208Z,585.00
2018-08-20T07:48:25.198Z,590.62
2018-08-20T07:49:25.201Z,596.25
2018-08-20T07:50:25.201Z,596.25
2018-08-20T07:51:25.165Z,601.88
2018-08-20T07:52:25.154Z,635.62
2018-08-20T07:53:25.142Z,877.50
2018-08-20T07:54:25.144Z,1001.25
2018-08-20T07:55:25.120Z,810.00
2018-08-20T07:56:25.110Z,680.62
2018-08-20T07:57:25.098Z,680.62
2018-08-20T07:58:25.095Z,765.00
2018-08-20T07:59:25.088Z,736.88
2018-08-20T08:00:25.067Z,714.38
2018-08-20T08:01:25.055Z,708.75
2018-08-20T08:02:25.045Z,708.75
2018-08-20T08:03:25.033Z,703.12
2018-08-20T08:04:25.037Z,708.75
2018-08-20T08:05:25.010Z,720.00
2018-08-20T08:06:25.000Z,720.00
2018-08-20T08:07:24.992Z,720.00
2018-08-20T08:08:24.977Z,720.00
2018-08-20T08:09:24.979Z,731.25
2018-08-20T08:10:24.954Z,838.12
2018-08-20T08:11:24.952Z,956.25
2018-08-20T08:12:24.932Z,973.12
2018-08-20T08:13:24.921Z,973.12
2018-08-20T08:14:24.926Z,1001.25
2018-08-20T08:15:24.900Z,956.25
2018-08-20T08:16:24.889Z,973.12
2018-08-20T08:17:24.881Z,1051.88
2018-08-20T08:18:24.872Z,1046.25
2018-08-20T08:19:24.869Z,1063.12
2018-08-20T08:20:24.879Z,1063.12
2018-08-20T08:21:24.834Z,1068.75
2018-08-20T08:22:24.822Z,1136.25
2018-08-20T08:23:24.822Z,1192.50
2018-08-20T08:24:24.817Z,1203.75
2018-08-20T08:25:24.790Z,1243.12
2018-08-20T08:26:24.790Z,1316.25
2018-08-20T08:27:24.767Z,1321.88
2018-08-20T08:28:24.762Z,1265.62
2018-08-20T08:29:24.760Z,1175.62
2018-08-20T08:30:24.736Z,1085.62
2018-08-20T08:31:24.724Z,1074.38
2018-08-20T08:32:24.715Z,1282.50
2018-08-20T08:33:24.701Z,1428.75
2018-08-20T08:34:24.702Z,1355.62
2018-08-20T08:35:24.681Z,1361.25
2018-08-20T08:36:24.670Z,1383.75
2018-08-20T08:37:24.659Z,1400.62
2018-08-20T08:38:24.646Z,1417.50
2018-08-20T08:39:24.649Z,1423.12
2018-08-20T08:40:24.625Z,1479.38
2018-08-20T08:41:24.635Z,1636.88
2018-08-20T08:42:24.605Z,2610.00
2018-08-20T08:43:24.594Z,3234.38
2018-08-20T08:44:24.594Z,3330.00
2018-08-20T08:45:24.571Z,3504.38
2018-08-20T08:46:24.562Z,3684.38
2018-08-20T08:47:24.549Z,3735.00
2018-08-20T08:48:24.535Z,3785.62
2018-08-20T08:49:24.547Z,3802.50
2018-08-20T08:50:24.517Z,3864.38
2018-08-20T08:51:24.504Z,3931.88
2018-08-20T08:52:24.495Z,4038.75
2018-08-20T08:53:24.482Z,4111.88
2018-08-20T08:54:24.485Z,4123.12
2018-08-20T08:55:24.459Z,4100.62
2018-08-20T08:56:24.449Z,4140.00
2018-08-20T08:57:24.439Z,4207.50
2018-08-20T08:58:24.426Z,4106.25
2018-08-20T08:59:24.433Z,4190.62
2018-08-20T09:00:24.455Z,4308.75
2018-08-20T09:01:24.395Z,4331.25
2018-08-20T09:02:24.387Z,4342.50
2018-08-20T09:03:24.377Z,4370.62
2018-08-20T09:04:24.372Z,4348.12
2018-08-20T09:05:24.349Z,4381.88
2018-08-20T09:06:24.341Z,4432.50
2018-08-20T09:07:24.417Z,4494.38
2018-08-20T09:08:24.317Z,4539.38
2018-08-20T09:09:24.321Z,4455.00
2018-08-20T09:10:24.295Z,4623.75
2018-08-20T09:11:24.285Z,4758.75
2018-08-20T09:12:24.274Z,4876.88
2018-08-20T09:13:24.274Z,4837.50
2018-08-20T09:14:24.270Z,4781.25
2018-08-20T09:15:24.243Z,4966.88
2018-08-20T09:16:24.232Z,4831.88
2018-08-20T09:17:24.222Z,4680.00
2018-08-20T09:18:24.255Z,4730.62
2018-08-20T09:19:24.221Z,3133.12
2018-08-20T09:20:24.186Z,4955.62
2018-08-20T09:21:24.181Z,4893.75
2018-08-20T09:22:24.165Z,5006.25
2018-08-20T09:23:24.153Z,900.00
2018-08-20T09:24:24.142Z,376.88
2018-08-20T09:25:24.144Z,365.62
2018-08-20T09:26:24.119Z,534.38
2018-08-20T09:27:24.110Z,2002.50
2018-08-20T09:28:24.098Z,2615.62
2018-08-20T09:29:24.085Z,545.62
2018-08-20T09:30:24.084Z,691.88
2018-08-20T09:31:24.066Z,3465.00
2018-08-20T09:32:24.141Z,3515.62
2018-08-20T09:33:24.043Z,3465.00
2018-08-20T09:34:24.034Z,3521.25
2018-08-20T09:35:24.032Z,3515.62
2018-08-20T09:36:24.010Z,3515.62
2018-08-20T09:37:24.001Z,3054.38
2018-08-20T09:38:24.127Z,3594.38
2018-08-20T09:39:23.977Z,3667.50
2018-08-20T09:40:23.977Z,3510.00
2018-08-20T09:41:23.954Z,1991.25
2018-08-20T09:42:23.944Z,3594.38
2018-08-20T09:43:23.932Z,3695.62
2018-08-20T09:44:23.920Z,3481.88
2018-08-20T09:45:23.924Z,3481.88
2018-08-20T09:46:23.900Z,3656.25
2018-08-20T09:47:23.888Z,3695.62
2018-08-20T09:48:23.879Z,3825.00
2018-08-20T09:49:23.871Z,3763.12
2018-08-20T09:50:23.878Z,3785.62
2018-08-20T09:51:23.845Z,3178.12
2018-08-20T09:52:23.852Z,1344.38
2018-08-20T09:53:23.909Z,3363.75
2018-08-20T09:54:23.812Z,3549.38
2018-08-20T09:55:23.814Z,3448.12
2018-08-20T09:56:23.790Z,765.00
2018-08-20T09:57:23.779Z,1400.62
2018-08-20T09:58:23.771Z,500.62
2018-08-20T09:59:23.764Z,371.25
2018-08-20T10:00:23.757Z,315.00
2018-08-20T10:01:23.734Z,275.62
2018-08-20T10:02:23.722Z,253.12
2018-08-20T10:03:23.724Z,225.00
2018-08-20T10:04:23.704Z,213.75
2018-08-20T10:05:23.718Z,202.50
2018-08-20T10:06:23.680Z,191.25
2018-08-20T10:07:23.731Z,191.25
2018-08-20T10:08:23.676Z,208.12
2018-08-20T10:09:23.649Z,225.00
2018-08-20T10:10:23.648Z,213.75
2018-08-20T10:11:23.626Z,219.38
2018-08-20T10:12:23.619Z,196.88
2018-08-20T10:13:23.605Z,185.62
2018-08-20T10:14:23.593Z,185.62
2018-08-20T10:15:23.595Z,185.62
2018-08-20T10:16:23.572Z,185.62
2018-08-20T10:17:23.559Z,219.38
2018-08-20T10:18:23.574Z,236.25
2018-08-20T10:19:23.539Z,202.50
2018-08-20T10:20:23.540Z,185.62
2018-08-20T10:21:23.515Z,191.25
2018-08-20T10:22:23.504Z,174.38
2018-08-20T10:23:23.495Z,180.00
2018-08-20T10:24:23.482Z,185.62
2018-08-20T10:25:26.343Z,174.38
2018-08-20T10:26:24.267Z,168.75
2018-08-20T10:27:23.452Z,163.12
2018-08-20T10:28:23.439Z,163.12
2018-08-20T10:29:23.430Z,168.75
2018-08-20T10:30:23.480Z,157.50
2018-08-20T10:31:23.405Z,146.25
2018-08-20T10:32:23.402Z,140.62
2018-08-20T10:33:23.385Z,135.00
2018-08-20T10:34:23.466Z,135.00
2018-08-20T10:35:23.386Z,135.00
2018-08-20T10:36:23.360Z,140.62
2018-08-20T10:37:23.340Z,140.62
2018-08-20T10:38:23.336Z,146.25
2018-08-20T10:39:23.320Z,151.88
2018-08-20T10:40:23.321Z,151.88
2018-08-20T10:41:23.297Z,157.50
2018-08-20T10:42:23.283Z,163.12
2018-08-20T10:43:23.278Z,163.12
2018-08-20T10:44:23.268Z,174.38
2018-08-20T10:45:23.264Z,196.88
2018-08-20T10:46:23.244Z,208.12
2018-08-20T10:47:23.233Z,219.38
2018-08-20T10:48:23.221Z,236.25
2018-08-20T10:49:23.211Z,264.38
2018-08-20T10:50:23.207Z,292.50
2018-08-20T10:51:23.189Z,326.25
2018-08-20T10:52:23.175Z,360.00
2018-08-20T10:53:23.165Z,343.12
2018-08-20T10:54:23.153Z,286.88
2018-08-20T10:55:23.154Z,270.00
2018-08-20T10:56:23.193Z,253.12
2018-08-20T10:57:23.122Z,219.38
2018-08-20T10:58:23.109Z,191.25
2018-08-20T10:59:23.099Z,174.38
2018-08-20T11:00:23.098Z,163.12
2018-08-20T11:01:23.076Z,157.50
2018-08-20T11:02:23.069Z,157.50
2018-08-20T11:03:23.055Z,157.50
2018-08-20T11:04:23.045Z,157.50
2018-08-20T11:05:23.052Z,168.75
2018-08-20T11:06:23.022Z,180.00
2018-08-20T11:07:23.023Z,180.00
2018-08-20T11:08:23.001Z,185.62
2018-08-20T11:09:22.988Z,185.62
2018-08-20T11:10:22.986Z,196.88
2018-08-20T11:11:22.970Z,225.00
2018-08-20T11:12:22.959Z,202.50
2018-08-20T11:13:22.945Z,174.38
2018-08-20T11:14:22.936Z,163.12
2018-08-20T11:15:22.938Z,191.25
2018-08-20T11:16:22.913Z,236.25
2018-08-20T11:17:22.903Z,298.12
2018-08-20T11:18:22.986Z,354.38
2018-08-20T11:19:22.883Z,303.75
2018-08-20T11:20:22.882Z,275.62
2018-08-20T11:21:22.857Z,315.00
2018-08-20T11:22:22.846Z,286.88
2018-08-20T11:23:22.835Z,281.25
2018-08-20T11:24:22.823Z,298.12
2018-08-20T11:25:22.813Z,298.12
2018-08-20T11:26:22.815Z,286.88
2018-08-20T11:27:22.792Z,281.25
2018-08-20T11:28:22.779Z,315.00
2018-08-20T11:29:22.772Z,360.00
2018-08-20T11:30:22.862Z,337.50
2018-08-20T11:31:22.763Z,320.62
2018-08-20T11:32:22.737Z,326.25
2018-08-20T11:33:22.725Z,337.50
2018-08-20T11:34:22.714Z,331.88
2018-08-20T11:35:22.702Z,331.88
2018-08-20T11:36:22.702Z,326.25
2018-08-20T11:37:22.680Z,348.75
2018-08-20T11:38:22.671Z,354.38
2018-08-20T11:39:22.662Z,354.38
2018-08-20T11:40:22.649Z,320.62
2018-08-20T11:41:22.646Z,315.00
2018-08-20T11:42:22.640Z,337.50
2018-08-20T11:43:22.643Z,337.50
2018-08-20T11:44:22.609Z,309.38
2018-08-20T11:45:22.595Z,309.38
2018-08-20T11:46:22.596Z,315.00
2018-08-20T11:47:22.576Z,309.38
2018-08-20T11:48:22.561Z,309.38
2018-08-20T11:49:22.548Z,309.38
2018-08-20T11:50:22.543Z,309.38
2018-08-20T11:51:22.538Z,315.00
2018-08-20T11:52:22.516Z,309.38
2018-08-20T11:53:22.507Z,309.38
2018-08-20T11:54:22.518Z,331.88
2018-08-20T11:55:22.486Z,348.75
2018-08-20T11:56:22.487Z,337.50
2018-08-20T11:57:22.475Z,315.00
2018-08-20T11:58:22.460Z,309.38
2018-08-20T11:59:22.438Z,315.00
2018-08-20T12:00:22.431Z,309.38
2018-08-20T12:01:22.435Z,298.12
2018-08-20T12:02:22.449Z,286.88
2018-08-20T12:03:22.494Z,258.75
2018-08-20T12:04:22.388Z,236.25
2018-08-20T12:05:22.416Z,275.62
2018-08-20T12:06:22.373Z,303.75
2018-08-20T12:07:22.486Z,298.12
2018-08-20T12:08:22.343Z,292.50
2018-08-20T12:09:22.328Z,270.00
2018-08-20T12:10:22.334Z,281.25
2018-08-20T12:11:22.318Z,298.12
2018-08-20T12:12:22.295Z,326.25
2018-08-20T12:13:22.284Z,320.62
2018-08-20T12:14:22.318Z,326.25
2018-08-20T12:15:22.263Z,354.38
2018-08-20T12:16:22.288Z,320.62
2018-08-20T12:17:22.365Z,281.25
2018-08-20T12:18:22.230Z,286.88
2018-08-20T12:19:22.217Z,275.62
2018-08-20T12:20:22.227Z,264.38
2018-08-20T12:21:22.210Z,292.50
2018-08-20T12:22:22.213Z,343.12
2018-08-20T12:23:22.176Z,354.38
2018-08-20T12:24:22.165Z,365.62
2018-08-20T12:25:22.274Z,376.88
2018-08-20T12:26:22.153Z,365.62
2018-08-20T12:27:22.130Z,315.00
2018-08-20T12:28:22.443Z,298.12
2018-08-20T12:29:22.139Z,298.12
2018-08-20T12:30:22.169Z,309.38
2018-08-20T12:31:22.102Z,298.12
2018-08-20T12:32:22.169Z,303.75
2018-08-20T12:33:22.131Z,281.25
2018-08-20T12:34:22.099Z,258.75
2018-08-20T12:35:22.042Z,225.00
2018-08-20T12:36:22.046Z,253.12
2018-08-20T12:37:22.020Z,286.88
2018-08-20T12:38:22.105Z,309.38
2018-08-20T12:39:21.999Z,309.38
2018-08-20T12:40:22.108Z,331.88
2018-08-20T12:41:22.109Z,315.00
2018-08-20T12:42:21.969Z,331.88
2018-08-20T12:43:21.957Z,337.50
2018-08-20T12:44:21.949Z,343.12
2018-08-20T12:45:21.935Z,292.50
2018-08-20T12:46:21.937Z,315.00
2018-08-20T12:47:21.910Z,365.62
2018-08-20T12:48:21.900Z,331.88
2018-08-20T12:49:21.893Z,309.38
2018-08-20T12:50:21.878Z,343.12
2018-08-20T12:51:21.880Z,365.62
2018-08-20T12:52:21.857Z,365.62
2018-08-20T12:53:21.849Z,354.38
2018-08-20T12:54:21.834Z,348.75
2018-08-20T12:55:21.828Z,343.12
2018-08-20T12:56:21.832Z,331.88
2018-08-20T12:57:21.805Z,337.50
2018-08-20T12:58:21.790Z,320.62
2018-08-20T12:59:21.784Z,331.88
2018-08-20T13:00:21.784Z,320.62
2018-08-20T13:01:21.770Z,298.12
2018-08-20T13:02:21.748Z,292.50
2018-08-20T13:03:21.734Z,275.62
2018-08-20T13:04:21.723Z,264.38
2018-08-20T13:05:21.716Z,264.38
2018-08-20T13:06:21.714Z,258.75
2018-08-20T13:07:21.694Z,253.12
2018-08-20T13:08:21.682Z,264.38
2018-08-20T13:09:21.667Z,270.00
2018-08-20T13:10:21.657Z,275.62
2018-08-20T13:11:21.673Z,292.50
2018-08-20T13:12:21.635Z,286.88
2018-08-20T13:13:21.625Z,298.12
2018-08-20T13:14:21.631Z,258.75
2018-08-20T13:15:21.605Z,236.25
2018-08-20T13:16:21.696Z,225.00
2018-08-20T13:17:21.583Z,230.62
2018-08-20T13:18:21.575Z,258.75
2018-08-20T13:19:21.563Z,264.38
2018-08-20T13:20:21.548Z,270.00
2018-08-20T13:21:21.551Z,264.38
2018-08-20T13:22:21.526Z,298.12
2018-08-20T13:23:21.520Z,286.88
2018-08-20T13:24:21.510Z,258.75
2018-08-20T13:25:21.501Z,270.00
2018-08-20T13:26:21.512Z,247.50
2018-08-20T13:27:21.473Z,253.12
2018-08-20T13:28:21.464Z,258.75
2018-08-20T13:29:21.452Z,264.38
2018-08-20T13:30:21.441Z,247.50
2018-08-20T13:31:21.428Z,208.12
2018-08-20T13:32:21.428Z,168.75
2018-08-20T13:33:21.410Z,151.88
2018-08-20T13:34:21.396Z,157.50
2018-08-20T13:35:21.383Z,146.25
2018-08-20T13:36:21.375Z,129.38
2018-08-20T13:37:21.393Z,129.38
2018-08-20T13:38:21.354Z,157.50
2018-08-20T13:39:21.341Z,174.38
2018-08-20T13:40:21.334Z,185.62
2018-08-20T13:41:21.318Z,180.00
2018-08-20T13:42:21.318Z,202.50
2018-08-20T13:43:21.297Z,225.00
2018-08-20T13:44:21.286Z,236.25
2018-08-20T13:45:21.275Z,247.50
2018-08-20T13:46:21.266Z,236.25
2018-08-20T13:47:21.266Z,219.38
2018-08-20T13:48:21.243Z,219.38
2018-08-20T13:49:21.231Z,230.62
2018-08-20T13:50:21.219Z,236.25
2018-08-20T13:51:21.208Z,270.00
2018-08-20T13:52:21.209Z,281.25
2018-08-20T13:53:21.187Z,281.25
2018-08-20T13:54:21.179Z,270.00
2018-08-20T13:55:21.165Z,258.75
2018-08-20T13:56:21.158Z,264.38
2018-08-20T13:57:21.184Z,258.75
2018-08-20T13:58:21.132Z,253.12
2018-08-20T13:59:21.121Z,247.50
2018-08-20T14:00:21.116Z,236.25
2018-08-20T14:01:21.103Z,241.88
2018-08-20T14:02:21.111Z,241.88
2018-08-20T14:03:21.119Z,241.88
2018-08-20T14:04:21.067Z,247.50
2018-08-20T14:05:21.060Z,241.88
2018-08-20T14:06:21.044Z,241.88
2018-08-20T14:07:21.058Z,230.62
2018-08-20T14:08:21.027Z,225.00
2018-08-20T14:09:21.152Z,213.75
2018-08-20T14:10:21.170Z,213.75
2018-08-20T14:11:20.991Z,213.75
2018-08-20T14:12:20.999Z,236.25
2018-08-20T14:13:20.993Z,241.88
2018-08-20T14:14:20.956Z,236.25
2018-08-20T14:15:20.946Z,241.88
2018-08-20T14:16:20.939Z,253.12
2018-08-20T14:17:20.940Z,253.12
2018-08-20T14:18:21.042Z,241.88
2018-08-20T14:19:20.903Z,253.12
2018-08-20T14:20:20.891Z,264.38
2018-08-20T14:21:20.880Z,253.12
2018-08-20T14:22:20.878Z,247.50
2018-08-20T14:23:20.871Z,241.88
2018-08-20T14:24:20.850Z,230.62
2018-08-20T14:25:20.837Z,236.25
2018-08-20T14:26:20.830Z,236.25
2018-08-20T14:27:20.830Z,230.62
2018-08-20T14:28:20.802Z,230.62
2018-08-20T14:29:20.911Z,230.62
2018-08-20T14:30:20.860Z,208.12
2018-08-20T14:31:20.768Z,196.88
2018-08-20T14:32:20.768Z,196.88
2018-08-20T14:33:20.757Z,219.38
2018-08-20T14:34:20.740Z,230.62
2018-08-20T14:35:20.728Z,225.00
2018-08-20T14:36:20.719Z,225.00
2018-08-20T14:37:20.745Z,219.38
2018-08-20T14:38:20.694Z,219.38
2018-08-20T14:39:20.687Z,213.75
2018-08-20T14:40:20.671Z,213.75
2018-08-20T14:41:20.661Z,219.38
2018-08-20T14:42:20.659Z,213.75
2018-08-20T14:43:20.637Z,219.38
2018-08-20T14:44:20.628Z,225.00
2018-08-20T14:45:20.618Z,230.62
2018-08-20T14:46:20.609Z,230.62
2018-08-20T14:47:20.605Z,230.62
2018-08-20T14:48:20.590Z,225.00
2018-08-20T14:49:20.580Z,219.38
2018-08-20T14:50:20.562Z,213.75
2018-08-20T14:51:20.788Z,202.50
2018-08-20T14:52:20.561Z,196.88
2018-08-20T14:53:20.558Z,191.25
2018-08-20T14:54:20.518Z,191.25
2018-08-20T14:55:20.564Z,185.62
2018-08-20T14:56:20.496Z,185.62
2018-08-20T14:57:20.508Z,180.00
2018-08-20T14:58:20.473Z,180.00
2018-08-20T14:59:20.460Z,174.38
2018-08-20T15:00:20.456Z,168.75
2018-08-20T15:01:20.445Z,168.75
2018-08-20T15:02:20.462Z,168.75
2018-08-20T15:03:20.419Z,163.12
2018-08-20T15:04:20.411Z,168.75
2018-08-20T15:05:20.395Z,174.38
2018-08-20T15:06:20.384Z,174.38
2018-08-20T15:07:20.384Z,180.00
2018-08-20T15:08:20.364Z,185.62
2018-08-20T15:09:20.522Z,180.00
2018-08-20T15:10:20.340Z,180.00
2018-08-20T15:11:20.329Z,185.62
2018-08-20T15:12:20.333Z,180.00
2018-08-20T15:13:20.311Z,180.00
2018-08-20T15:14:20.299Z,180.00
2018-08-20T15:15:20.497Z,180.00
2018-08-20T15:16:20.274Z,185.62
2018-08-20T15:17:20.277Z,180.00
2018-08-20T15:18:20.252Z,180.00
2018-08-20T15:19:20.242Z,180.00
2018-08-20T15:20:20.236Z,180.00
2018-08-20T15:21:20.224Z,180.00
2018-08-20T15:22:20.222Z,174.38
2018-08-20T15:23:20.205Z,174.38
2018-08-20T15:24:20.231Z,168.75
2018-08-20T15:25:20.302Z,168.75
2018-08-20T15:26:20.292Z,163.12
2018-08-20T15:27:20.314Z,157.50
2018-08-20T15:28:20.224Z,157.50
2018-08-20T15:29:20.247Z,146.25
2018-08-20T15:30:20.122Z,140.62
2018-08-20T15:31:20.124Z,140.62
2018-08-20T15:32:20.152Z,146.25
2018-08-20T15:33:20.200Z,151.88
2018-08-20T15:34:20.080Z,151.88
2018-08-20T15:35:20.074Z,151.88
2018-08-20T15:36:20.055Z,151.88
2018-08-20T15:37:20.044Z,146.25
2018-08-20T15:38:20.048Z,140.62
2018-08-20T15:39:20.071Z,140.62
2018-08-20T15:40:20.011Z,146.25
2018-08-20T15:41:20.005Z,140.62
2018-08-20T15:42:19.990Z,135.00
2018-08-20T15:43:19.992Z,140.62
2018-08-20T15:44:19.984Z,140.62
2018-08-20T15:45:19.956Z,135.00
2018-08-20T15:46:20.033Z,135.00
2018-08-20T15:47:19.937Z,135.00
2018-08-20T15:48:19.993Z,135.00
2018-08-20T15:49:19.927Z,135.00
2018-08-20T15:50:19.917Z,135.00
2018-08-20T15:51:22.458Z,135.00
2018-08-20T15:52:19.884Z,140.62
2018-08-20T15:53:20.067Z,135.00
2018-08-20T15:54:19.872Z,140.62
2018-08-20T15:55:19.847Z,146.25
2018-08-20T15:56:19.834Z,146.25
2018-08-20T15:57:19.828Z,146.25
2018-08-20T15:58:19.831Z,146.25
2018-08-20T15:59:19.803Z,146.25
2018-08-20T16:00:19.799Z,146.25
2018-08-20T16:01:19.782Z,140.62
2018-08-20T16:02:19.769Z,140.62
2018-08-20T16:03:19.772Z,135.00
2018-08-20T16:04:19.748Z,135.00
2018-08-20T16:05:19.745Z,135.00
2018-08-20T16:06:19.727Z,129.38
2018-08-20T16:07:19.714Z,129.38
2018-08-20T16:08:19.725Z,129.38
2018-08-20T16:09:19.739Z,129.38
2018-08-20T16:10:19.713Z,123.75
2018-08-20T16:11:19.799Z,123.75
2018-08-20T16:12:19.660Z,123.75
2018-08-20T16:13:19.669Z,123.75
2018-08-20T16:14:19.640Z,118.12
2018-08-20T16:15:19.689Z,118.12
2018-08-20T16:16:19.618Z,118.12
2018-08-20T16:17:19.608Z,112.50
2018-08-20T16:18:19.604Z,112.50
2018-08-20T16:19:19.585Z,112.50
2018-08-20T16:20:19.573Z,112.50
2018-08-20T16:21:19.568Z,106.88
2018-08-20T16:22:19.560Z,106.88
2018-08-20T16:23:19.554Z,101.25
2018-08-20T16:24:19.527Z,101.25
2018-08-20T16:25:19.517Z,95.62